Elnora, Indiana
Current Conditions -  °F | °C
As of 3:15 PM on Saturday 25 Oct 2014 (Local Time) from KDCY Reporting Station
Clear Clear  
Wind Chill: 77°   Ceiling: Unl
Heat Index: 78°   Visibility: 10mi
Dew Point: 55°   Wind: 7mph
Humidity: 46%   Direction: 280°W
Pressure: 29.97"   Gusts: NA
Location:  38.88°N, 87.09°W
Report Text: KDCY 252015Z AUTO 28006KT 10SM CLR 25/13 A2997 RMK AO2 T02500125
Loading
Personal Weather Stations






























Interactive Weather Map
Tropical Storm Tracking
New forecast layout! Learn more

10-Day Weather Forecast

Advertisements
Track Severe Weather on mobile